createdAt,value
2022-09-02T00:02:27.219Z,13.69
2022-09-02T00:04:55.827Z,13.71
2022-09-02T00:07:26.250Z,13.63
2022-09-02T00:09:55.645Z,13.60
2022-09-02T00:12:24.743Z,13.45
2022-09-02T00:14:53.537Z,13.51
2022-09-02T00:17:22.175Z,13.50
2022-09-02T00:19:56.825Z,13.32
2022-09-02T00:22:27.279Z,13.22
2022-09-02T00:24:59.088Z,13.41
2022-09-02T00:27:34.077Z,13.41
2022-09-02T00:30:02.023Z,13.43
2022-09-02T00:32:31.051Z,13.23
2022-09-02T00:34:59.263Z,13.22
2022-09-02T00:37:29.664Z,13.19
2022-09-02T00:40:00.837Z,13.34
2022-09-02T00:42:28.927Z,13.14
2022-09-02T00:44:57.057Z,13.12
2022-09-02T00:47:25.922Z,13.26
2022-09-02T00:49:55.337Z,13.09
2022-09-02T00:52:30.472Z,13.01
2022-09-02T00:55:03.933Z,13.10
2022-09-02T00:57:35.059Z,12.92
2022-09-02T01:00:10.079Z,12.90
2022-09-02T01:02:40.044Z,12.87
2022-09-02T01:05:11.094Z,12.78
2022-09-02T01:07:40.657Z,12.86
2022-09-02T01:10:13.013Z,12.86
2022-09-02T01:12:42.471Z,12.70
2022-09-02T01:15:12.822Z,12.57
2022-09-02T01:17:44.584Z,12.70
2022-09-02T01:20:15.982Z,12.65
2022-09-02T01:22:46.685Z,12.63
2022-09-02T01:25:26.181Z,12.44
2022-09-02T01:27:57.448Z,12.68
2022-09-02T01:30:27.135Z,12.57
2022-09-02T01:32:56.992Z,12.77
2022-09-02T01:35:28.817Z,12.66
2022-09-02T01:38:02.755Z,12.65
2022-09-02T01:40:33.389Z,12.61
2022-09-02T01:43:05.808Z,12.55
2022-09-02T01:45:34.691Z,12.52
2022-09-02T01:48:04.505Z,12.68
2022-09-02T01:50:35.755Z,12.55
2022-09-02T01:53:06.385Z,12.55
2022-09-02T01:55:35.629Z,12.63
2022-09-02T01:58:05.610Z,12.46
2022-09-02T02:00:34.032Z,12.63
2022-09-02T02:03:02.477Z,12.46
2022-09-02T02:05:36.287Z,12.40
2022-09-02T02:08:07.697Z,12.62
2022-09-02T02:10:37.702Z,12.53
2022-09-02T02:13:06.885Z,12.50
2022-09-02T02:15:38.514Z,12.29
2022-09-02T02:18:06.849Z,12.35
2022-09-02T02:20:35.329Z,12.27
2022-09-02T02:23:03.554Z,12.19
2022-09-02T02:25:34.464Z,12.04
2022-09-02T02:28:05.652Z,12.30
2022-09-02T02:30:36.824Z,12.31
2022-09-02T02:33:09.489Z,12.30
2022-09-02T02:35:37.775Z,12.14
2022-09-02T02:38:14.407Z,12.38
2022-09-02T02:40:45.248Z,12.33
2022-09-02T02:43:13.395Z,12.42
2022-09-02T02:45:41.958Z,12.34
2022-09-02T02:48:10.155Z,12.28
2022-09-02T02:50:38.136Z,12.30
2022-09-02T02:53:06.546Z,12.47
2022-09-02T02:55:36.744Z,12.42
2022-09-02T02:58:12.582Z,12.54
2022-09-02T03:00:46.477Z,12.29
2022-09-02T03:03:20.006Z,12.13
2022-09-02T03:05:49.271Z,12.12
2022-09-02T03:08:22.795Z,12.10
2022-09-02T03:10:58.708Z,12.27
2022-09-02T03:13:53.513Z,12.28
2022-09-02T03:16:23.667Z,12.03
2022-09-02T03:18:52.521Z,11.99
2022-09-02T03:21:21.705Z,12.01
2022-09-02T03:23:51.651Z,11.83
2022-09-02T03:26:24.102Z,11.96
2022-09-02T03:28:57.367Z,11.90
2022-09-02T03:31:28.806Z,11.81
2022-09-02T03:34:07.498Z,11.76
2022-09-02T03:36:40.571Z,11.84
2022-09-02T03:39:19.561Z,11.86
2022-09-02T03:41:56.064Z,11.85
2022-09-02T03:44:31.283Z,11.78
2022-09-02T03:46:59.470Z,11.59
2022-09-02T03:49:28.355Z,11.55
2022-09-02T03:51:57.252Z,11.48
2022-09-02T03:54:25.602Z,11.57
2022-09-02T03:56:53.702Z,11.31
2022-09-02T03:59:21.784Z,11.50
2022-09-02T04:01:51.890Z,11.47
2022-09-02T04:04:25.896Z,11.54
2022-09-02T04:06:55.107Z,11.25
2022-09-02T04:09:23.563Z,11.19
2022-09-02T04:11:51.602Z,11.22
2022-09-02T04:14:20.601Z,11.12
2022-09-02T04:16:48.885Z,11.25
2022-09-02T04:19:18.662Z,11.09
2022-09-02T04:21:47.252Z,11.06
2022-09-02T04:24:18.172Z,10.94
2022-09-02T04:26:48.735Z,11.18
2022-09-02T04:29:22.253Z,10.88
2022-09-02T04:31:50.640Z,11.07
2022-09-02T04:38:30.842Z,11.32
2022-09-02T04:52:21.216Z,11.08
2022-09-02T04:55:11.074Z,11.19
2022-09-02T04:57:45.041Z,11.27
2022-09-02T05:00:17.174Z,11.22
2022-09-02T05:03:26.161Z,11.28
2022-09-02T05:06:44.719Z,11.36
2022-09-02T05:09:16.886Z,11.31
2022-09-02T05:11:57.489Z,11.31
2022-09-02T05:14:45.442Z,11.24
2022-09-02T05:17:20.861Z,11.14
2022-09-02T05:20:05.861Z,11.37
2022-09-02T05:23:08.036Z,11.48
2022-09-02T05:25:57.687Z,11.47
2022-09-02T05:28:26.563Z,11.57
2022-09-02T05:31:06.739Z,11.52
2022-09-02T05:33:38.851Z,11.61
2022-09-02T05:36:14.138Z,11.42
2022-09-02T05:38:46.061Z,11.56
2022-09-02T05:41:23.913Z,11.69
2022-09-02T05:44:03.622Z,11.56
2022-09-02T05:46:35.406Z,11.65
2022-09-02T05:49:17.550Z,11.78
2022-09-02T05:51:48.152Z,11.88
2022-09-02T05:54:18.582Z,11.90
2022-09-02T05:56:54.322Z,11.89
2022-09-02T05:59:27.134Z,11.99
2022-09-02T06:02:05.325Z,12.16
2022-09-02T06:04:43.684Z,12.25
2022-09-02T06:07:13.875Z,12.31
2022-09-02T06:09:44.750Z,12.38
2022-09-02T06:12:24.022Z,12.50
2022-09-02T06:15:20.186Z,12.56
2022-09-02T06:17:50.407Z,12.53
2022-09-02T06:20:23.897Z,12.83
2022-09-02T06:23:12.459Z,12.92
2022-09-02T06:25:42.911Z,12.97
2022-09-02T06:28:25.101Z,13.39
2022-09-02T06:31:05.195Z,14.01
2022-09-02T06:33:37.770Z,15.05
2022-09-02T06:36:09.689Z,15.88
2022-09-02T06:38:48.230Z,16.25
2022-09-02T06:41:43.052Z,16.83
2022-09-02T06:44:58.122Z,16.73
2022-09-02T06:47:42.177Z,16.60
2022-09-02T06:50:11.868Z,16.79
2022-09-02T06:52:41.059Z,16.85
2022-09-02T06:55:10.828Z,16.70
2022-09-02T06:57:46.656Z,16.37
2022-09-02T07:00:26.437Z,17.08
2022-09-02T07:03:26.646Z,17.28
2022-09-02T07:06:12.800Z,17.13
2022-09-02T07:08:44.427Z,17.15
2022-09-02T07:11:18.772Z,17.99
2022-09-02T07:13:47.006Z,17.70
2022-09-02T07:16:20.453Z,18.40
2022-09-02T07:18:57.064Z,18.02
2022-09-02T07:21:25.298Z,18.44
2022-09-02T07:23:53.471Z,18.64
2022-09-02T07:26:24.506Z,18.40
2022-09-02T07:28:52.718Z,18.61
2022-09-02T07:31:21.225Z,18.60
2022-09-02T07:33:49.969Z,19.44
2022-09-02T07:36:21.703Z,19.06
2022-09-02T07:38:50.057Z,18.91
2022-09-02T07:41:18.828Z,19.02
2022-09-02T07:43:50.985Z,19.06
2022-09-02T07:46:20.467Z,19.51
2022-09-02T07:48:50.752Z,19.72
2022-09-02T07:51:20.839Z,20.19
2022-09-02T07:53:50.330Z,21.00
2022-09-02T07:56:18.933Z,20.23
2022-09-02T07:58:47.466Z,20.36
2022-09-02T08:01:18.910Z,20.68
2022-09-02T08:03:50.080Z,20.76
2022-09-02T08:06:18.059Z,20.22
2022-09-02T08:09:03.385Z,20.72
2022-09-02T08:11:31.677Z,21.01
2022-09-02T08:14:00.638Z,21.42
2022-09-02T08:16:29.205Z,21.32
2022-09-02T08:18:57.918Z,21.67
2022-09-02T08:24:40.006Z,22.14
2022-09-02T08:27:07.909Z,22.06
2022-09-02T08:29:35.914Z,22.67
2022-09-02T08:32:06.597Z,23.25
2022-09-02T08:34:35.042Z,23.58
2022-09-02T08:37:03.016Z,23.41
2022-09-02T08:39:30.976Z,22.51
2022-09-02T08:42:08.954Z,22.81
2022-09-02T08:44:40.037Z,23.23
2022-09-02T08:47:14.379Z,23.34
2022-09-02T08:49:45.055Z,23.50
2022-09-02T08:52:21.445Z,23.35
2022-09-02T08:54:55.739Z,23.91
2022-09-02T08:57:27.670Z,23.46
2022-09-02T08:59:58.951Z,23.52
2022-09-02T09:02:33.475Z,23.28
2022-09-02T09:05:24.934Z,23.50
2022-09-02T09:08:04.969Z,23.67
2022-09-02T09:10:41.011Z,23.82
2022-09-02T09:13:24.795Z,24.00
2022-09-02T09:16:00.481Z,24.15
2022-09-02T09:18:39.025Z,24.73
2022-09-02T09:21:07.850Z,25.22
2022-09-02T09:23:40.919Z,25.06
2022-09-02T09:26:12.782Z,24.38
2022-09-02T09:28:44.781Z,24.98
2022-09-02T09:31:15.785Z,24.41
2022-09-02T09:33:57.407Z,25.13
2022-09-02T09:36:49.334Z,25.13
2022-09-02T09:39:23.549Z,25.35
2022-09-02T09:41:55.834Z,25.12
2022-09-02T09:44:49.219Z,25.09
2022-09-02T09:47:20.551Z,26.21
2022-09-02T09:49:52.059Z,25.54
2022-09-02T09:52:32.342Z,25.56
2022-09-02T09:55:24.920Z,26.12
2022-09-02T09:58:11.085Z,25.82
2022-09-02T10:00:50.278Z,26.10
2022-09-02T10:03:27.441Z,26.48
2022-09-02T10:06:19.495Z,26.12
2022-09-02T10:08:57.153Z,26.11
2022-09-02T10:11:27.684Z,25.64
2022-09-02T10:14:01.062Z,26.18
2022-09-02T10:16:44.803Z,26.42
2022-09-02T10:19:26.664Z,27.14
2022-09-02T10:22:22.208Z,27.26
2022-09-02T10:25:21.582Z,26.88
2022-09-02T10:27:56.832Z,27.31
2022-09-02T10:30:26.609Z,25.97
2022-09-02T10:33:18.700Z,27.76
2022-09-02T10:35:52.245Z,27.30
2022-09-02T10:38:33.627Z,28.39
2022-09-02T10:41:19.856Z,27.94
2022-09-02T10:44:10.429Z,28.36
2022-09-02T10:46:49.858Z,27.86
2022-09-02T10:49:31.227Z,27.36
2022-09-02T10:52:08.237Z,28.15
2022-09-02T10:54:48.124Z,28.03
2022-09-02T10:57:20.916Z,28.33
2022-09-02T10:59:54.233Z,26.30
2022-09-02T11:02:28.032Z,27.00
2022-09-02T11:05:01.900Z,27.46
2022-09-02T11:07:34.674Z,27.42
2022-09-02T11:10:10.571Z,27.75
2022-09-02T11:12:42.857Z,27.30
2022-09-02T11:15:17.511Z,27.95
2022-09-02T11:17:52.647Z,28.22
2022-09-02T11:20:31.647Z,28.07
2022-09-02T11:23:07.856Z,28.27
2022-09-02T11:25:40.910Z,29.50
2022-09-02T11:28:27.186Z,28.18
2022-09-02T11:31:06.731Z,28.89
2022-09-02T11:33:45.604Z,28.50
2022-09-02T11:36:15.086Z,28.47
2022-09-02T11:38:52.593Z,28.30
2022-09-02T11:41:49.081Z,29.24
2022-09-02T11:44:52.673Z,28.75
2022-09-02T11:47:45.725Z,28.89
2022-09-02T11:50:38.739Z,29.06
2022-09-02T11:53:21.865Z,29.34
2022-09-02T11:55:56.927Z,28.82
2022-09-02T11:58:37.249Z,28.81
2022-09-02T12:01:25.872Z,28.54
2022-09-02T12:04:55.468Z,28.57
2022-09-02T12:07:20.923Z,29.49
2022-09-02T12:09:57.560Z,27.93
2022-09-02T12:13:03.896Z,28.60
2022-09-02T12:15:36.478Z,29.13
2022-09-02T12:18:13.071Z,29.20
2022-09-02T12:21:16.879Z,30.47
2022-09-02T12:24:12.565Z,30.57
2022-09-02T12:27:26.146Z,30.63
2022-09-02T12:29:56.647Z,29.14
2022-09-02T12:33:03.374Z,28.17
2022-09-02T12:35:52.285Z,28.98
2022-09-02T12:38:27.949Z,29.24
2022-09-02T12:41:16.273Z,30.04
2022-09-02T12:44:11.981Z,31.38
2022-09-02T12:47:01.803Z,30.47
2022-09-02T12:49:42.355Z,29.63
2022-09-02T12:52:12.533Z,29.24
2022-09-02T12:54:48.847Z,29.59
2022-09-02T12:57:18.436Z,29.50
2022-09-02T12:59:48.451Z,29.34
2022-09-02T13:02:51.159Z,29.26
2022-09-02T13:05:25.187Z,29.83
2022-09-02T13:08:24.844Z,29.54
2022-09-02T13:11:26.145Z,29.18
2022-09-02T13:14:25.676Z,30.25
2022-09-02T13:17:36.080Z,28.92
2022-09-02T13:20:34.537Z,30.11
2022-09-02T13:23:23.797Z,29.55
2022-09-02T13:26:47.942Z,30.75
2022-09-02T13:29:52.647Z,29.15
2022-09-02T13:32:24.871Z,30.65
2022-09-02T13:34:56.221Z,31.06
2022-09-02T13:37:37.239Z,30.47
2022-09-02T13:40:17.783Z,31.57
2022-09-02T13:42:50.276Z,30.55
2022-09-02T13:45:20.510Z,30.39
2022-09-02T13:47:52.698Z,31.06
2022-09-02T13:50:25.337Z,31.06
2022-09-02T13:55:49.888Z,32.27
2022-09-02T13:58:25.293Z,32.35
2022-09-02T14:00:53.489Z,30.97
2022-09-02T14:03:26.044Z,30.00
2022-09-02T14:05:56.048Z,31.01
2022-09-02T14:08:28.860Z,31.00
2022-09-02T14:10:58.397Z,31.17
2022-09-02T14:13:27.787Z,30.55
2022-09-02T14:16:16.123Z,29.83
2022-09-02T14:19:08.671Z,29.90
2022-09-02T14:21:37.966Z,30.13
2022-09-02T14:24:22.204Z,30.29
2022-09-02T14:26:53.057Z,31.24
2022-09-02T14:29:22.020Z,32.16
2022-09-02T14:32:09.913Z,31.24
2022-09-02T14:34:39.754Z,30.72
2022-09-02T14:37:22.325Z,30.58
2022-09-02T14:40:06.334Z,30.63
2022-09-02T14:42:34.537Z,31.16
2022-09-02T14:45:05.641Z,30.76
2022-09-02T14:47:39.122Z,30.14
2022-09-02T14:50:12.189Z,29.06
2022-09-02T14:52:48.302Z,28.40
2022-09-02T14:55:50.035Z,28.25
2022-09-02T14:58:18.882Z,28.17
2022-09-02T15:00:52.154Z,28.39
2022-09-02T15:03:20.847Z,29.91
2022-09-02T15:05:50.293Z,29.46
2022-09-02T15:08:20.006Z,28.89
2022-09-02T15:10:50.224Z,28.43
2022-09-02T15:13:27.677Z,28.81
2022-09-02T15:15:59.544Z,29.51
2022-09-02T15:18:28.725Z,28.91
2022-09-02T15:20:57.636Z,28.99
2022-09-02T15:23:27.287Z,29.07
2022-09-02T15:25:58.036Z,28.89
2022-09-02T15:28:26.082Z,27.99
2022-09-02T15:30:59.355Z,27.46
2022-09-02T15:33:28.467Z,28.43
2022-09-02T15:35:56.512Z,28.33
2022-09-02T15:38:24.556Z,27.47
2022-09-02T15:40:52.690Z,27.95
2022-09-02T15:43:22.630Z,27.95
2022-09-02T15:45:50.773Z,28.11
2022-09-02T15:48:18.726Z,27.42
2022-09-02T15:50:46.797Z,27.14
2022-09-02T15:53:15.698Z,27.49
2022-09-02T15:55:43.559Z,27.27
2022-09-02T15:58:12.170Z,26.90
2022-09-02T16:00:41.675Z,26.48
2022-09-02T16:03:11.950Z,26.21
2022-09-02T16:05:39.738Z,26.13
2022-09-02T16:08:07.633Z,26.09
2022-09-02T16:10:37.652Z,26.17
2022-09-02T16:13:05.775Z,26.32
2022-09-02T16:15:34.459Z,26.66
2022-09-02T16:18:04.114Z,26.90
2022-09-02T16:20:32.041Z,26.80
2022-09-02T16:22:59.946Z,26.55
2022-09-02T16:25:27.712Z,26.35
2022-09-02T16:27:56.672Z,25.81
2022-09-02T16:30:25.714Z,26.26
2022-09-02T16:32:57.098Z,26.13
2022-09-02T16:35:26.683Z,26.35
2022-09-02T16:37:57.503Z,25.90
2022-09-02T16:40:25.727Z,25.51
2022-09-02T16:42:53.731Z,25.31
2022-09-02T16:45:21.633Z,25.15
2022-09-02T16:47:49.402Z,25.42
2022-09-02T16:50:17.476Z,25.61
2022-09-02T16:52:47.266Z,24.85
2022-09-02T16:55:18.663Z,24.63
2022-09-02T16:57:48.769Z,24.40
2022-09-02T17:00:28.253Z,24.24
2022-09-02T17:03:00.815Z,24.39
2022-09-02T17:05:32.379Z,24.54
2022-09-02T17:08:02.745Z,24.41
2022-09-02T17:10:30.990Z,24.73
2022-09-02T17:13:00.558Z,24.65
2022-09-02T17:15:30.045Z,24.39
2022-09-02T17:17:58.157Z,24.63
2022-09-02T17:20:26.797Z,24.66
2022-09-02T17:22:55.418Z,24.65
2022-09-02T17:25:24.679Z,24.42
2022-09-02T17:27:52.683Z,24.05
2022-09-02T17:30:23.847Z,23.83
2022-09-02T17:32:56.322Z,23.62
2022-09-02T17:35:26.740Z,23.48
2022-09-02T17:37:54.711Z,23.37
2022-09-02T17:40:41.316Z,23.18
2022-09-02T17:43:09.331Z,23.05
2022-09-02T17:45:37.485Z,22.86
2022-09-02T17:48:34.281Z,22.71
2022-09-02T17:51:03.650Z,22.60
2022-09-02T17:53:43.976Z,22.43
2022-09-02T17:56:48.567Z,22.25
2022-09-02T17:59:25.726Z,22.19
2022-09-02T18:02:04.946Z,22.02
2022-09-02T18:04:49.328Z,21.78
2022-09-02T18:07:27.776Z,21.64
2022-09-02T18:09:55.956Z,21.49
2022-09-02T18:12:26.814Z,21.39
2022-09-02T18:14:59.250Z,21.48
2022-09-02T18:17:34.909Z,21.37
2022-09-02T18:20:10.944Z,21.29
2022-09-02T18:23:12.775Z,21.15
2022-09-02T18:25:51.080Z,20.92
2022-09-02T18:28:38.716Z,20.85
2022-09-02T18:31:18.748Z,20.77
2022-09-02T18:34:05.510Z,20.62
2022-09-02T18:36:42.637Z,20.48
2022-09-02T18:39:39.314Z,20.43
2022-09-02T18:42:18.266Z,20.30
2022-09-02T18:44:58.029Z,20.05
2022-09-02T18:47:32.700Z,19.96
2022-09-02T18:50:04.705Z,20.17
2022-09-02T18:52:35.012Z,19.88
2022-09-02T18:55:09.993Z,19.65
2022-09-02T18:57:43.026Z,19.72
2022-09-02T19:00:16.023Z,19.77
2022-09-02T19:02:49.143Z,19.59
2022-09-02T19:05:20.988Z,19.60
2022-09-02T19:08:14.520Z,19.64
2022-09-02T19:10:42.421Z,19.69
2022-09-02T19:13:10.501Z,19.78
2022-09-02T19:15:41.123Z,19.79
2022-09-02T19:18:10.643Z,19.87
2022-09-02T19:20:39.959Z,19.91
2022-09-02T19:23:12.205Z,19.98
2022-09-02T19:25:44.206Z,20.01
2022-09-02T19:28:15.419Z,19.87
2022-09-02T19:30:45.444Z,19.90
2022-09-02T19:33:14.775Z,19.98
2022-09-02T19:35:47.535Z,19.94
2022-09-02T19:38:17.737Z,19.89
2022-09-02T19:40:49.438Z,19.76
2022-09-02T19:43:17.480Z,19.85
2022-09-02T19:45:51.367Z,19.79
2022-09-02T19:48:20.220Z,19.78
2022-09-02T19:50:49.204Z,19.80
2022-09-02T19:53:25.705Z,19.79
2022-09-02T19:55:53.627Z,19.62
2022-09-02T19:58:24.902Z,19.57
2022-09-02T20:00:56.043Z,19.50
2022-09-02T20:03:23.937Z,19.40
2022-09-02T20:05:52.470Z,19.49
2022-09-02T20:08:28.935Z,19.68
2022-09-02T20:10:59.003Z,19.78
2022-09-02T20:13:27.823Z,19.69
2022-09-02T20:15:58.407Z,19.72
2022-09-02T20:18:27.795Z,19.59
2022-09-02T20:20:58.796Z,19.68
2022-09-02T20:23:28.672Z,19.70
2022-09-02T20:26:10.434Z,19.62
2022-09-02T20:28:53.305Z,19.54
2022-09-02T20:31:40.783Z,19.51
2022-09-02T20:34:29.863Z,19.48
2022-09-02T20:37:11.948Z,19.43
2022-09-02T20:39:53.938Z,19.49
2022-09-02T20:42:39.543Z,19.36
2022-09-02T20:45:14.536Z,19.31
2022-09-02T20:47:58.365Z,19.28
2022-09-02T20:50:38.584Z,19.17
2022-09-02T20:53:19.217Z,19.16
2022-09-02T20:55:56.952Z,19.10
2022-09-02T20:58:36.044Z,19.01
2022-09-02T21:01:07.919Z,18.96
2022-09-02T21:03:52.041Z,18.91
2022-09-02T21:06:22.205Z,18.86
2022-09-02T21:09:00.700Z,18.80
2022-09-02T21:11:35.600Z,18.60
2022-09-02T21:14:17.386Z,18.60
2022-09-02T21:16:52.207Z,18.59
2022-09-02T21:19:30.497Z,18.52
2022-09-02T21:22:22.623Z,18.42
2022-09-02T21:25:04.369Z,18.25
2022-09-02T21:27:35.866Z,18.09
2022-09-02T21:30:08.140Z,18.10
2022-09-02T21:32:41.175Z,18.05
2022-09-02T21:35:18.431Z,17.93
2022-09-02T21:37:59.337Z,17.86
2022-09-02T21:40:44.911Z,17.88
2022-09-02T21:43:27.352Z,17.55
2022-09-02T21:46:08.224Z,17.50
2022-09-02T21:48:49.865Z,17.60
2022-09-02T21:51:27.457Z,17.62
2022-09-02T21:54:05.634Z,17.47
2022-09-02T21:56:59.023Z,17.46
2022-09-02T21:59:46.139Z,17.33
2022-09-02T22:02:20.215Z,17.16
2022-09-02T22:05:01.277Z,17.13
2022-09-02T22:07:38.916Z,17.09
2022-09-02T22:10:13.596Z,17.16
2022-09-02T22:12:50.139Z,16.99
2022-09-02T22:15:28.248Z,17.02
2022-09-02T22:18:10.980Z,16.82
2022-09-02T22:20:45.045Z,16.76
2022-09-02T22:23:25.734Z,16.81
2022-09-02T22:25:55.702Z,16.85
2022-09-02T22:28:31.265Z,16.61
2022-09-02T22:31:02.779Z,16.63
2022-09-02T22:33:36.623Z,16.68
2022-09-02T22:36:09.760Z,16.48
2022-09-02T22:38:46.328Z,16.57
2022-09-02T22:41:24.695Z,16.42
2022-09-02T22:43:58.995Z,16.42
2022-09-02T22:46:50.842Z,16.23
2022-09-02T22:49:39.460Z,16.32
2022-09-02T22:52:35.334Z,16.34
2022-09-02T22:55:06.522Z,16.26
2022-09-02T22:57:48.869Z,16.18
2022-09-02T23:00:18.538Z,16.22
2022-09-02T23:02:56.720Z,16.22
2022-09-02T23:05:45.226Z,16.26
2022-09-02T23:08:15.482Z,16.18
2022-09-02T23:10:57.027Z,16.17
2022-09-02T23:13:46.842Z,16.30
2022-09-02T23:16:26.071Z,16.40
2022-09-02T23:19:07.729Z,16.47
2022-09-02T23:21:47.137Z,16.37
2022-09-02T23:24:26.416Z,16.34
2022-09-02T23:27:05.942Z,16.26
2022-09-02T23:29:35.644Z,16.39
2022-09-02T23:32:23.692Z,16.23
2022-09-02T23:35:11.370Z,16.06
2022-09-02T23:37:56.861Z,16.18
2022-09-02T23:40:29.982Z,16.23
2022-09-02T23:43:00.499Z,16.00
2022-09-02T23:45:32.015Z,16.05
2022-09-02T23:48:26.123Z,16.07
2022-09-02T23:51:06.749Z,15.92
2022-09-02T23:53:40.396Z,15.75
2022-09-02T23:56:23.628Z,15.86
2022-09-02T23:59:15.012Z,15.74
